sensor_id;sensor_type;location;lat;lon;timestamp;pressure;altitude;pressure_sealevel;temperature;humidity
12666;BME280;58531;59.050;17.416;2023-03-31T00:01:05;99895.97;;;-1.59;97.83
12666;BME280;58531;59.050;17.416;2023-03-31T00:03:32;99900.06;;;-1.58;98.04
12666;BME280;58531;59.050;17.416;2023-03-31T00:06:03;99893.34;;;-1.59;97.73
12666;BME280;58531;59.050;17.416;2023-03-31T00:08:31;99891.09;;;-1.60;97.21
12666;BME280;58531;59.050;17.416;2023-03-31T00:11:01;99887.38;;;-1.59;97.51
12666;BME280;58531;59.050;17.416;2023-03-31T00:13:29;99893.34;;;-1.59;97.67
12666;BME280;58531;59.050;17.416;2023-03-31T00:16:00;99887.72;;;-1.61;98.13
12666;BME280;58531;59.050;17.416;2023-03-31T00:18:27;99885.09;;;-1.61;97.53
12666;BME280;58531;59.050;17.416;2023-03-31T00:20:54;99884.00;;;-1.60;97.49
12666;BME280;58531;59.050;17.416;2023-03-31T00:23:26;99882.88;;;-1.62;97.61
12666;BME280;58531;59.050;17.416;2023-03-31T00:25:53;99876.16;;;-1.56;97.49
12666;BME280;58531;59.050;17.416;2023-03-31T00:28:21;99870.53;;;-1.58;97.44
12666;BME280;58531;59.050;17.416;2023-03-31T00:30:48;99863.44;;;-1.58;97.79
12666;BME280;58531;59.050;17.416;2023-03-31T00:33:17;99867.91;;;-1.62;98.15
12666;BME280;58531;59.050;17.416;2023-03-31T00:35:44;99866.41;;;-1.63;97.99
12666;BME280;58531;59.050;17.416;2023-03-31T00:38:11;99858.94;;;-1.61;98.24
12666;BME280;58531;59.050;17.416;2023-03-31T00:40:44;99855.94;;;-1.63;98.13
12666;BME280;58531;59.050;17.416;2023-03-31T00:43:23;99852.97;;;-1.61;98.42
12666;BME280;58531;59.050;17.416;2023-03-31T00:45:54;99852.19;;;-1.62;98.46
12666;BME280;58531;59.050;17.416;2023-03-31T00:48:22;99848.47;;;-1.61;98.30
12666;BME280;58531;59.050;17.416;2023-03-31T00:50:53;99837.63;;;-1.63;98.31
12666;BME280;58531;59.050;17.416;2023-03-31T00:53:22;99849.22;;;-1.64;98.64
12666;BME280;58531;59.050;17.416;2023-03-31T00:55:52;99845.84;;;-1.64;98.34
12666;BME280;58531;59.050;17.416;2023-03-31T00:58:21;99848.09;;;-1.66;98.86
12666;BME280;58531;59.050;17.416;2023-03-31T01:00:54;99848.44;;;-1.68;98.76
12666;BME280;58531;59.050;17.416;2023-03-31T01:03:24;99840.97;;;-1.66;98.87
12666;BME280;58531;59.050;17.416;2023-03-31T01:05:54;99841.34;;;-1.64;98.89
12666;BME280;58531;59.050;17.416;2023-03-31T01:08:25;99841.00;;;-1.62;98.50
12666;BME280;58531;59.050;17.416;2023-03-31T01:10:54;99844.72;;;-1.63;98.50
12666;BME280;58531;59.050;17.416;2023-03-31T01:13:22;99845.13;;;-1.61;98.40
12666;BME280;58531;59.050;17.416;2023-03-31T01:15:50;99841.00;;;-1.62;98.50
12666;BME280;58531;59.050;17.416;2023-03-31T01:18:18;99848.47;;;-1.61;98.43
12666;BME280;58531;59.050;17.416;2023-03-31T01:21:02;99844.34;;;-1.62;98.75
12666;BME280;58531;59.050;17.416;2023-03-31T01:23:54;99846.97;;;-1.62;98.50
12666;BME280;58531;59.050;17.416;2023-03-31T01:29:58;99839.13;;;-1.62;97.59
12666;BME280;58531;59.050;17.416;2023-03-31T01:32:55;99838.00;;;-1.57;97.67
12666;BME280;58531;59.050;17.416;2023-03-31T01:35:47;99831.28;;;-1.55;96.83
12666;BME280;58531;59.050;17.416;2023-03-31T01:41:33;99823.06;;;-1.60;97.58
12666;BME280;58531;59.050;17.416;2023-03-31T01:44:09;99832.75;;;-1.61;97.97
12666;BME280;58531;59.050;17.416;2023-03-31T01:46:45;99829.41;;;-1.58;97.28
12666;BME280;58531;59.050;17.416;2023-03-31T01:49:20;99826.03;;;-1.55;96.98
12666;BME280;58531;59.050;17.416;2023-03-31T01:51:55;99818.56;;;-1.60;97.07
12666;BME280;58531;59.050;17.416;2023-03-31T01:54:29;99816.31;;;-1.58;97.68
12666;BME280;58531;59.050;17.416;2023-03-31T01:57:10;99818.94;;;-1.58;97.89
12666;BME280;58531;59.050;17.416;2023-03-31T01:59:43;99818.56;;;-1.63;98.78
12666;BME280;58531;59.050;17.416;2023-03-31T02:02:15;99822.66;;;-1.66;98.87
12666;BME280;58531;59.050;17.416;2023-03-31T02:04:47;99818.91;;;-1.65;99.04
12666;BME280;58531;59.050;17.416;2023-03-31T02:07:19;99823.78;;;-1.67;99.48
12666;BME280;58531;59.050;17.416;2023-03-31T02:09:49;99814.44;;;-1.68;99.94
12666;BME280;58531;59.050;17.416;2023-03-31T02:12:20;99816.31;;;-1.68;99.94
12666;BME280;58531;59.050;17.416;2023-03-31T02:14:51;99814.44;;;-1.68;100.00
12666;BME280;58531;59.050;17.416;2023-03-31T02:17:22;99810.31;;;-1.69;100.00
12666;BME280;58531;59.050;17.416;2023-03-31T02:19:56;99812.56;;;-1.67;100.00
12666;BME280;58531;59.050;17.416;2023-03-31T02:22:24;99810.31;;;-1.69;100.00
12666;BME280;58531;59.050;17.416;2023-03-31T02:24:53;99812.56;;;-1.71;100.00
12666;BME280;58531;59.050;17.416;2023-03-31T02:27:24;99809.19;;;-1.71;100.00
12666;BME280;58531;59.050;17.416;2023-03-31T02:29:53;99820.03;;;-1.73;100.00
12666;BME280;58531;59.050;17.416;2023-03-31T02:32:22;99818.53;;;-1.74;100.00
12666;BME280;58531;59.050;17.416;2023-03-31T02:34:50;99815.56;;;-1.72;100.00
12666;BME280;58531;59.050;17.416;2023-03-31T02:37:17;99818.53;;;-1.74;100.00
12666;BME280;58531;59.050;17.416;2023-03-31T02:39:46;99829.38;;;-1.75;100.00
12666;BME280;58531;59.050;17.416;2023-03-31T02:42:14;99824.53;;;-1.73;100.00
12666;BME280;58531;59.050;17.416;2023-03-31T02:44:43;99822.66;;;-1.76;100.00
12666;BME280;58531;59.050;17.416;2023-03-31T02:47:12;99827.13;;;-1.77;100.00
12666;BME280;58531;59.050;17.416;2023-03-31T02:49:42;99814.41;;;-1.78;100.00
12666;BME280;58531;59.050;17.416;2023-03-31T02:52:21;99815.53;;;-1.79;100.00
12666;BME280;58531;59.050;17.416;2023-03-31T02:55:14;99808.44;;;-1.79;100.00
12666;BME280;58531;59.050;17.416;2023-03-31T02:58:08;99816.31;;;-1.79;100.00
12666;BME280;58531;59.050;17.416;2023-03-31T03:00:58;99808.06;;;-1.81;100.00
12666;BME280;58531;59.050;17.416;2023-03-31T03:03:40;99806.56;;;-1.82;100.00
12666;BME280;58531;59.050;17.416;2023-03-31T03:06:18;99814.03;;;-1.84;100.00
12666;BME280;58531;59.050;17.416;2023-03-31T03:09:01;99812.53;;;-1.85;100.00
12666;BME280;58531;59.050;17.416;2023-03-31T03:11:37;99811.06;;;-1.86;100.00
12666;BME280;58531;59.050;17.416;2023-03-31T03:14:10;99807.31;;;-1.85;100.00
12666;BME280;58531;59.050;17.416;2023-03-31T03:16:43;99809.16;;;-1.85;100.00
12666;BME280;58531;59.050;17.416;2023-03-31T03:19:17;99807.31;;;-1.85;100.00
12666;BME280;58531;59.050;17.416;2023-03-31T03:21:45;99807.69;;;-1.83;100.00
12666;BME280;58531;59.050;17.416;2023-03-31T03:24:12;99808.81;;;-1.84;100.00
12666;BME280;58531;59.050;17.416;2023-03-31T03:26:40;99808.06;;;-1.84;100.00
12666;BME280;58531;59.050;17.416;2023-03-31T03:29:07;99813.66;;;-1.86;100.00
12666;BME280;58531;59.050;17.416;2023-03-31T03:31:34;99812.91;;;-1.86;100.00
12666;BME280;58531;59.050;17.416;2023-03-31T03:34:02;99813.66;;;-1.82;100.00
12666;BME280;58531;59.050;17.416;2023-03-31T03:36:29;99815.53;;;-1.83;99.87
12666;BME280;58531;59.050;17.416;2023-03-31T03:38:56;99808.81;;;-1.80;100.00
12666;BME280;58531;59.050;17.416;2023-03-31T03:41:22;99808.44;;;-1.79;100.00
12666;BME280;58531;59.050;17.416;2023-03-31T03:43:49;99808.44;;;-1.79;99.51
12666;BME280;58531;59.050;17.416;2023-03-31T03:46:16;99804.69;;;-1.81;99.83
12666;BME280;58531;59.050;17.416;2023-03-31T03:48:43;99805.81;;;-1.82;99.59
12666;BME280;58531;59.050;17.416;2023-03-31T03:51:12;99808.06;;;-1.81;99.53
12666;BME280;58531;59.050;17.416;2023-03-31T03:53:38;99812.91;;;-1.79;98.99
12666;BME280;58531;59.050;17.416;2023-03-31T03:56:05;99800.59;;;-1.79;99.43
12666;BME280;58531;59.050;17.416;2023-03-31T03:58:32;99802.84;;;-1.81;99.19
12666;BME280;58531;59.050;17.416;2023-03-31T04:00:59;99802.06;;;-1.81;99.58
12666;BME280;58531;59.050;17.416;2023-03-31T04:03:26;99803.56;;;-1.84;99.19
12666;BME280;58531;59.050;17.416;2023-03-31T04:05:52;99802.06;;;-1.81;99.50
12666;BME280;58531;59.050;17.416;2023-03-31T04:08:21;99801.34;;;-1.82;99.02
12666;BME280;58531;59.050;17.416;2023-03-31T04:10:48;99796.09;;;-1.82;98.69
12666;BME280;58531;59.050;17.416;2023-03-31T04:13:16;99796.09;;;-1.82;98.35
12666;BME280;58531;59.050;17.416;2023-03-31T04:15:43;99795.34;;;-1.86;98.62
12666;BME280;58531;59.050;17.416;2023-03-31T04:18:10;99800.59;;;-1.86;98.39
12666;BME280;58531;59.050;17.416;2023-03-31T04:20:43;99805.06;;;-1.83;98.64
12666;BME280;58531;59.050;17.416;2023-03-31T04:23:09;99802.06;;;-1.88;98.29
12666;BME280;58531;59.050;17.416;2023-03-31T04:25:40;99796.84;;;-1.85;98.57
12666;BME280;58531;59.050;17.416;2023-03-31T04:28:10;99798.34;;;-1.84;97.78
12666;BME280;58531;59.050;17.416;2023-03-31T04:30:39;99796.84;;;-1.85;97.92
12666;BME280;58531;59.050;17.416;2023-03-31T04:33:06;99799.84;;;-1.83;97.00
12666;BME280;58531;59.050;17.416;2023-03-31T04:35:33;99799.84;;;-1.83;97.38
12666;BME280;58531;59.050;17.416;2023-03-31T04:38:13;99798.34;;;-1.80;97.02
12666;BME280;58531;59.050;17.416;2023-03-31T04:40:44;99800.56;;;-1.82;97.17
12666;BME280;58531;59.050;17.416;2023-03-31T04:43:11;99791.59;;;-1.81;96.66
12666;BME280;58531;59.050;17.416;2023-03-31T04:45:38;99796.09;;;-1.82;96.08
12666;BME280;58531;59.050;17.416;2023-03-31T04:48:05;99796.09;;;-1.82;96.26
12666;BME280;58531;59.050;17.416;2023-03-31T04:50:32;99799.47;;;-1.81;96.37
12666;BME280;58531;59.050;17.416;2023-03-31T04:52:59;99785.63;;;-1.82;95.92
12666;BME280;58531;59.050;17.416;2023-03-31T04:55:26;99786.38;;;-1.74;95.52
12666;BME280;58531;59.050;17.416;2023-03-31T04:57:54;99786.38;;;-1.74;94.72
12666;BME280;58531;59.050;17.416;2023-03-31T05:00:22;99786.38;;;-1.74;94.72
12666;BME280;58531;59.050;17.416;2023-03-31T05:02:49;99791.63;;;-1.71;94.82
12666;BME280;58531;59.050;17.416;2023-03-31T05:05:15;99785.66;;;-1.64;94.73
12666;BME280;58531;59.050;17.416;2023-03-31T05:07:42;99787.50;;;-1.65;93.94
12666;BME280;58531;59.050;17.416;2023-03-31T05:10:10;99789.38;;;-1.62;94.53
12666;BME280;58531;59.050;17.416;2023-03-31T05:12:37;99791.66;;;-1.60;93.78
12666;BME280;58531;59.050;17.416;2023-03-31T05:15:06;99791.63;;;-1.57;94.25
12666;BME280;58531;59.050;17.416;2023-03-31T05:17:34;99790.88;;;-1.54;93.02
12666;BME280;58531;59.050;17.416;2023-03-31T05:20:02;99793.50;;;-1.50;92.75
12666;BME280;58531;59.050;17.416;2023-03-31T05:22:33;99790.53;;;-1.49;92.59
12666;BME280;58531;59.050;17.416;2023-03-31T05:25:00;99788.66;;;-1.45;92.33
12666;BME280;58531;59.050;17.416;2023-03-31T05:27:27;99790.13;;;-1.40;92.66
12666;BME280;58531;59.050;17.416;2023-03-31T05:29:54;99784.16;;;-1.30;92.30
12666;BME280;58531;59.050;17.416;2023-03-31T05:32:22;99791.63;;;-1.22;91.50
12666;BME280;58531;59.050;17.416;2023-03-31T05:34:49;99793.50;;;-1.22;90.68
12666;BME280;58531;59.050;17.416;2023-03-31T05:37:17;99792.75;;;-1.16;90.40
12666;BME280;58531;59.050;17.416;2023-03-31T05:39:43;99792.38;;;-1.15;90.73
12666;BME280;58531;59.050;17.416;2023-03-31T05:42:10;99785.63;;;-1.05;89.66
12666;BME280;58531;59.050;17.416;2023-03-31T05:44:37;99797.59;;;-0.97;89.75
12666;BME280;58531;59.050;17.416;2023-03-31T05:47:04;99800.19;;;-1.01;88.96
12666;BME280;58531;59.050;17.416;2023-03-31T05:49:32;99797.22;;;-0.92;89.13
12666;BME280;58531;59.050;17.416;2023-03-31T05:51:59;99798.31;;;-0.86;88.73
12666;BME280;58531;59.050;17.416;2023-03-31T05:54:26;99804.63;;;-0.73;88.34
12666;BME280;58531;59.050;17.416;2023-03-31T05:56:53;99800.94;;;-0.86;87.74
12666;BME280;58531;59.050;17.416;2023-03-31T05:59:20;99799.81;;;-0.85;87.45
12666;BME280;58531;59.050;17.416;2023-03-31T06:01:47;99797.56;;;-0.94;86.88
12666;BME280;58531;59.050;17.416;2023-03-31T06:04:13;99800.19;;;-0.90;87.41
12666;BME280;58531;59.050;17.416;2023-03-31T06:06:42;99800.56;;;-0.85;87.38
12666;BME280;58531;59.050;17.416;2023-03-31T06:09:10;99800.94;;;-0.83;86.28
12666;BME280;58531;59.050;17.416;2023-03-31T06:11:37;99796.81;;;-0.91;86.82
12666;BME280;58531;59.050;17.416;2023-03-31T06:14:04;99804.69;;;-0.87;87.12
12666;BME280;58531;59.050;17.416;2023-03-31T06:16:31;99800.16;;;-0.76;86.42
12666;BME280;58531;59.050;17.416;2023-03-31T06:18:58;99805.75;;;-0.67;85.76
12666;BME280;58531;59.050;17.416;2023-03-31T06:21:25;99812.50;;;-0.70;85.46
12666;BME280;58531;59.050;17.416;2023-03-31T06:23:54;99813.25;;;-0.69;85.83
12666;BME280;58531;59.050;17.416;2023-03-31T06:26:22;99805.72;;;-0.60;86.01
12666;BME280;58531;59.050;17.416;2023-03-31T06:28:50;99800.50;;;-0.60;85.44
12666;BME280;58531;59.050;17.416;2023-03-31T06:31:18;99811.00;;;-0.67;85.18
12666;BME280;58531;59.050;17.416;2023-03-31T06:33:46;99805.75;;;-0.64;85.70
12666;BME280;58531;59.050;17.416;2023-03-31T06:36:15;99813.19;;;-0.48;85.53
12666;BME280;58531;59.050;17.416;2023-03-31T06:38:42;99811.66;;;-0.46;84.76
12666;BME280;58531;59.050;17.416;2023-03-31T06:41:12;99812.44;;;-0.49;85.54
12666;BME280;58531;59.050;17.416;2023-03-31T06:43:40;99815.78;;;-0.38;84.88
12666;BME280;58531;59.050;17.416;2023-03-31T06:46:07;99813.91;;;-0.37;84.84
12666;BME280;58531;59.050;17.416;2023-03-31T06:48:34;99814.66;;;-0.33;84.00
12666;BME280;58531;59.050;17.416;2023-03-31T06:51:02;99823.66;;;-0.45;83.68
12666;BME280;58531;59.050;17.416;2023-03-31T06:53:30;99820.72;;;-0.54;83.99
12666;BME280;58531;59.050;17.416;2023-03-31T06:55:57;99825.97;;;-0.61;84.60
12666;BME280;58531;59.050;17.416;2023-03-31T06:58:25;99821.84;;;-0.58;84.82
12666;BME280;58531;59.050;17.416;2023-03-31T07:00:52;99840.94;;;-0.61;84.67
12666;BME280;58531;59.050;17.416;2023-03-31T07:03:19;99831.19;;;-0.54;85.52
12666;BME280;58531;59.050;17.416;2023-03-31T07:05:49;99838.28;;;-0.51;84.93
12666;BME280;58531;59.050;17.416;2023-03-31T07:08:17;99825.19;;;-0.47;84.19
12666;BME280;58531;59.050;17.416;2023-03-31T07:10:44;99834.16;;;-0.45;85.50
12666;BME280;58531;59.050;17.416;2023-03-31T07:13:13;99842.75;;;-0.30;84.90
12666;BME280;58531;59.050;17.416;2023-03-31T07:15:42;99844.25;;;-0.36;84.02
12666;BME280;58531;59.050;17.416;2023-03-31T07:18:09;99842.78;;;-0.44;84.26
12666;BME280;58531;59.050;17.416;2023-03-31T07:20:37;99849.88;;;-0.41;84.92
12666;BME280;58531;59.050;17.416;2023-03-31T07:23:04;99839.78;;;-0.39;84.56
12666;BME280;58531;59.050;17.416;2023-03-31T07:25:31;99836.38;;;-0.40;83.89
12666;BME280;58531;59.050;17.416;2023-03-31T07:27:58;99842.69;;;-0.20;84.38
12666;BME280;58531;59.050;17.416;2023-03-31T07:30:25;99842.63;;;-0.06;83.04
12666;BME280;58531;59.050;17.416;2023-03-31T07:32:54;99842.22;;;0.02;82.37
12666;BME280;58531;59.050;17.416;2023-03-31T07:35:21;99842.16;;;0.16;81.93
12666;BME280;58531;59.050;17.416;2023-03-31T07:37:49;99852.19;;;0.28;81.45
12666;BME280;58531;59.050;17.416;2023-03-31T07:40:18;99853.06;;;0.11;82.04
12666;BME280;58531;59.050;17.416;2023-03-31T07:42:45;99849.75;;;-0.03;82.63
12666;BME280;58531;59.050;17.416;2023-03-31T07:45:13;99862.50;;;-0.08;82.97
12666;BME280;58531;59.050;17.416;2023-03-31T07:47:41;99858.03;;;-0.18;82.51
12666;BME280;58531;59.050;17.416;2023-03-31T07:50:09;99853.63;;;-0.42;83.87
12666;BME280;58531;59.050;17.416;2023-03-31T07:52:36;99860.72;;;-0.36;84.31
12666;BME280;58531;59.050;17.416;2023-03-31T07:55:04;99854.31;;;-0.21;83.93
12666;BME280;58531;59.050;17.416;2023-03-31T07:57:31;99858.03;;;-0.08;83.46
12666;BME280;58531;59.050;17.416;2023-03-31T07:59:58;99861.41;;;-0.14;82.47
12666;BME280;58531;59.050;17.416;2023-03-31T08:02:25;99861.03;;;-0.13;83.37
12666;BME280;58531;59.050;17.416;2023-03-31T08:04:51;99869.63;;;-0.05;82.96
12666;BME280;58531;59.050;17.416;2023-03-31T08:07:19;99868.09;;;0.00;82.43
12666;BME280;58531;59.050;17.416;2023-03-31T08:09:46;99866.13;;;0.25;82.42
12666;BME280;58531;59.050;17.416;2023-03-31T08:12:13;99872.34;;;0.45;80.90
12666;BME280;58531;59.050;17.416;2023-03-31T08:14:41;99866.28;;;0.55;79.87
12666;BME280;58531;59.050;17.416;2023-03-31T08:17:08;99874.22;;;0.99;79.49
12666;BME280;58531;59.050;17.416;2023-03-31T08:19:35;99866.66;;;1.48;76.63
12666;BME280;58531;59.050;17.416;2023-03-31T08:22:02;99867.56;;;1.28;76.05
12666;BME280;58531;59.050;17.416;2023-03-31T08:24:30;99864.66;;;1.19;75.44
12666;BME280;58531;59.050;17.416;2023-03-31T08:26:57;99877.41;;;1.24;75.77
12666;BME280;58531;59.050;17.416;2023-03-31T08:29:24;99868.44;;;1.14;76.30
12666;BME280;58531;59.050;17.416;2023-03-31T08:31:52;99865.56;;;1.02;77.21
12666;BME280;58531;59.050;17.416;2023-03-31T08:34:19;99867.50;;;0.95;77.22
12666;BME280;58531;59.050;17.416;2023-03-31T08:36:45;99865.41;;;1.19;76.93
12666;BME280;58531;59.050;17.416;2023-03-31T08:39:13;99864.38;;;1.10;76.79
12666;BME280;58531;59.050;17.416;2023-03-31T08:41:53;99863.38;;;1.34;76.03
12666;BME280;58531;59.050;17.416;2023-03-31T08:44:25;99874.00;;;1.23;75.83
12666;BME280;58531;59.050;17.416;2023-03-31T08:46:56;99877.75;;;1.26;75.97
12666;BME280;58531;59.050;17.416;2023-03-31T08:49:25;99866.78;;;1.34;76.30
12666;BME280;58531;59.050;17.416;2023-03-31T08:51:57;99873.47;;;1.39;76.21
12666;BME280;58531;59.050;17.416;2023-03-31T08:54:31;99863.66;;;1.46;75.33
12666;BME280;58531;59.050;17.416;2023-03-31T08:57:00;99865.03;;;1.58;75.08
12666;BME280;58531;59.050;17.416;2023-03-31T08:59:29;99877.75;;;1.63;75.33
12666;BME280;58531;59.050;17.416;2023-03-31T09:02:03;99865.81;;;1.55;75.06
12666;BME280;58531;59.050;17.416;2023-03-31T09:04:57;99871.72;;;1.66;75.43
12666;BME280;58531;59.050;17.416;2023-03-31T09:07:34;99877.13;;;1.52;74.19
12666;BME280;58531;59.050;17.416;2023-03-31T09:10:19;99877.19;;;1.45;74.92
12666;BME280;58531;59.050;17.416;2023-03-31T09:12:54;99885.22;;;1.68;74.69
12666;BME280;58531;59.050;17.416;2023-03-31T09:15:25;99883.88;;;1.53;74.63
12666;BME280;58531;59.050;17.416;2023-03-31T09:17:55;99882.38;;;1.52;73.60
12666;BME280;58531;59.050;17.416;2023-03-31T09:20:27;99881.03;;;1.74;73.92
12666;BME280;58531;59.050;17.416;2023-03-31T09:23:00;99882.63;;;1.98;72.34
12666;BME280;58531;59.050;17.416;2023-03-31T09:25:34;99892.72;;;2.03;71.51
12666;BME280;58531;59.050;17.416;2023-03-31T09:28:08;99884.47;;;2.01;71.37
12666;BME280;58531;59.050;17.416;2023-03-31T09:30:40;99890.72;;;2.14;70.20
12666;BME280;58531;59.050;17.416;2023-03-31T09:33:11;99884.91;;;2.26;70.35
12666;BME280;58531;59.050;17.416;2023-03-31T09:35:40;99888.34;;;2.75;69.17
12666;BME280;58531;59.050;17.416;2023-03-31T09:38:08;99888.84;;;2.67;67.90
12666;BME280;58531;59.050;17.416;2023-03-31T09:40:37;99882.41;;;2.41;68.87
12666;BME280;58531;59.050;17.416;2023-03-31T09:43:07;99894.97;;;2.60;68.32
12666;BME280;58531;59.050;17.416;2023-03-31T09:45:34;99888.56;;;2.61;68.00
12666;BME280;58531;59.050;17.416;2023-03-31T09:48:04;99887.09;;;2.30;68.57
12666;BME280;58531;59.050;17.416;2023-03-31T09:50:40;99890.41;;;2.34;69.34
12666;BME280;58531;59.050;17.416;2023-03-31T09:53:14;99895.81;;;2.28;67.98
12666;BME280;58531;59.050;17.416;2023-03-31T09:55:44;99892.72;;;2.03;68.12
12666;BME280;58531;59.050;17.416;2023-03-31T09:58:15;99901.31;;;2.07;67.95
12666;BME280;58531;59.050;17.416;2023-03-31T10:00:55;99892.72;;;2.03;67.69
12666;BME280;58531;59.050;17.416;2023-03-31T10:03:23;99888.59;;;2.02;68.16
12666;BME280;58531;59.050;17.416;2023-03-31T10:05:54;99891.72;;;1.90;68.39
12666;BME280;58531;59.050;17.416;2023-03-31T10:08:26;99890.50;;;2.01;67.63
12666;BME280;58531;59.050;17.416;2023-03-31T10:10:56;99893.00;;;2.08;68.44
12666;BME280;58531;59.050;17.416;2023-03-31T10:13:28;99885.66;;;1.96;68.29
12666;BME280;58531;59.050;17.416;2023-03-31T10:16:02;99890.97;;;2.23;67.94
12666;BME280;58531;59.050;17.416;2023-03-31T10:18:34;99890.06;;;2.32;66.60
12666;BME280;58531;59.050;17.416;2023-03-31T10:21:03;99884.97;;;2.48;65.17
12666;BME280;58531;59.050;17.416;2023-03-31T10:23:32;99892.13;;;2.48;64.87
12666;BME280;58531;59.050;17.416;2023-03-31T10:25:59;99889.47;;;2.22;64.10
12666;BME280;58531;59.050;17.416;2023-03-31T10:28:31;99886.16;;;2.18;65.21
12666;BME280;58531;59.050;17.416;2023-03-31T10:31:00;99882.38;;;2.19;65.33
12666;BME280;58531;59.050;17.416;2023-03-31T10:33:29;99894.19;;;2.33;64.88
12666;BME280;58531;59.050;17.416;2023-03-31T10:36:00;99888.56;;;2.61;63.70
12666;BME280;58531;59.050;17.416;2023-03-31T10:38:30;99890.03;;;2.62;61.63
12666;BME280;58531;59.050;17.416;2023-03-31T10:40:58;99894.97;;;2.30;61.76
12666;BME280;58531;59.050;17.416;2023-03-31T10:43:29;99889.13;;;2.20;61.78
12666;BME280;58531;59.050;17.416;2023-03-31T10:46:01;99897.59;;;2.34;61.21
12666;BME280;58531;59.050;17.416;2023-03-31T10:48:30;99886.41;;;2.27;61.13
12666;BME280;58531;59.050;17.416;2023-03-31T10:51:04;99898.44;;;2.28;61.44
12666;BME280;58531;59.050;17.416;2023-03-31T10:53:39;99906.84;;;2.45;61.11
12666;BME280;58531;59.050;17.416;2023-03-31T10:56:20;99903.72;;;2.28;61.08
12666;BME280;58531;59.050;17.416;2023-03-31T10:59:05;99892.72;;;2.03;60.55
12666;BME280;58531;59.050;17.416;2023-03-31T11:01:44;99902.03;;;2.11;61.47
12666;BME280;58531;59.050;17.416;2023-03-31T11:04:39;99908.00;;;2.15;62.00
12666;BME280;58531;59.050;17.416;2023-03-31T11:07:18;99905.44;;;2.08;62.38
12666;BME280;58531;59.050;17.416;2023-03-31T11:10:00;99907.69;;;2.65;62.00
12666;BME280;58531;59.050;17.416;2023-03-31T11:12:34;99919.28;;;2.71;60.40
12666;BME280;58531;59.050;17.416;2023-03-31T11:15:14;99911.38;;;2.98;59.81
12666;BME280;58531;59.050;17.416;2023-03-31T11:17:59;99912.91;;;2.95;60.46
12666;BME280;58531;59.050;17.416;2023-03-31T11:20:33;99900.41;;;2.99;59.48
12666;BME280;58531;59.050;17.416;2023-03-31T11:23:10;99898.44;;;2.80;59.27
12666;BME280;58531;59.050;17.416;2023-03-31T11:25:48;99901.22;;;2.70;60.60
12666;BME280;58531;59.050;17.416;2023-03-31T11:28:33;99898.41;;;2.57;60.37
12666;BME280;58531;59.050;17.416;2023-03-31T11:31:17;99911.28;;;2.52;60.25
12666;BME280;58531;59.050;17.416;2023-03-31T11:33:56;99911.81;;;2.66;60.42
12666;BME280;58531;59.050;17.416;2023-03-31T11:36:53;99904.03;;;2.82;60.78
12666;BME280;58531;59.050;17.416;2023-03-31T11:39:33;99904.81;;;2.83;58.15
12666;BME280;58531;59.050;17.416;2023-03-31T11:42:02;99921.16;;;2.44;59.35
12666;BME280;58531;59.050;17.416;2023-03-31T11:44:38;99912.56;;;2.40;59.11
12666;BME280;58531;59.050;17.416;2023-03-31T11:47:11;99909.47;;;2.72;59.24
12666;BME280;58531;59.050;17.416;2023-03-31T11:49:42;99904.13;;;2.52;57.19
12666;BME280;58531;59.050;17.416;2023-03-31T11:52:14;99903.94;;;2.36;56.55
12666;BME280;58531;59.050;17.416;2023-03-31T11:54:46;99896.91;;;2.56;58.28
12666;BME280;58531;59.050;17.416;2023-03-31T11:57:19;99892.78;;;2.82;57.02
12666;BME280;58531;59.050;17.416;2023-03-31T11:59:53;99907.00;;;2.61;55.31
12666;BME280;58531;59.050;17.416;2023-03-31T12:02:30;99900.44;;;2.73;55.50
12666;BME280;58531;59.050;17.416;2023-03-31T12:04:59;99904.28;;;2.38;55.75
12666;BME280;58531;59.050;17.416;2023-03-31T12:07:32;99909.56;;;2.65;57.01
12666;BME280;58531;59.050;17.416;2023-03-31T12:10:04;99916.75;;;2.64;55.41
12666;BME280;58531;59.050;17.416;2023-03-31T12:12:41;99908.94;;;2.57;56.04
12666;BME280;58531;59.050;17.416;2023-03-31T12:15:16;99900.78;;;2.48;57.31
12666;BME280;58531;59.050;17.416;2023-03-31T12:17:48;99904.06;;;3.05;55.69
12666;BME280;58531;59.050;17.416;2023-03-31T12:20:25;99894.97;;;3.33;53.64
12666;BME280;58531;59.050;17.416;2023-03-31T12:22:55;99907.13;;;3.04;53.90
12666;BME280;58531;59.050;17.416;2023-03-31T12:25:23;99899.88;;;2.85;54.28
12666;BME280;58531;59.050;17.416;2023-03-31T12:27:51;99893.97;;;2.77;54.22
12666;BME280;58531;59.050;17.416;2023-03-31T12:30:22;99891.22;;;2.84;54.79
12666;BME280;58531;59.050;17.416;2023-03-31T12:32:58;99896.31;;;2.45;55.45
12666;BME280;58531;59.050;17.416;2023-03-31T12:35:33;99901.38;;;2.59;56.45
12666;BME280;58531;59.050;17.416;2023-03-31T12:38:25;99906.66;;;2.59;56.51
12666;BME280;58531;59.050;17.416;2023-03-31T12:41:02;99903.66;;;2.57;57.11
12666;BME280;58531;59.050;17.416;2023-03-31T12:43:49;99898.25;;;2.68;55.29
12666;BME280;58531;59.050;17.416;2023-03-31T12:46:36;99911.13;;;2.62;55.13
12666;BME280;58531;59.050;17.416;2023-03-31T12:49:18;99894.91;;;2.64;55.05
12666;BME280;58531;59.050;17.416;2023-03-31T12:51:57;99908.25;;;2.80;54.05
12666;BME280;58531;59.050;17.416;2023-03-31T12:54:36;99900.63;;;3.08;53.94
12666;BME280;58531;59.050;17.416;2023-03-31T12:57:18;99897.19;;;3.11;54.21
12666;BME280;58531;59.050;17.416;2023-03-31T12:59:45;99895.53;;;2.98;53.02
12666;BME280;58531;59.050;17.416;2023-03-31T13:02:32;99897.38;;;3.01;53.55
12666;BME280;58531;59.050;17.416;2023-03-31T13:08:06;99895.91;;;2.73;51.36
12666;BME280;58531;59.050;17.416;2023-03-31T13:10:52;99891.53;;;2.63;52.64
12666;BME280;58531;59.050;17.416;2023-03-31T13:13:21;99895.13;;;2.76;53.22
12666;BME280;58531;59.050;17.416;2023-03-31T13:15:49;99892.16;;;2.71;51.55
12666;BME280;58531;59.050;17.416;2023-03-31T13:18:19;99901.88;;;2.77;50.21
12666;BME280;58531;59.050;17.416;2023-03-31T13:20:57;99888.91;;;2.37;50.75
12666;BME280;58531;59.050;17.416;2023-03-31T13:23:25;99894.34;;;2.23;51.46